Time;durP1;ratioP1;P1;durP2;ratioP2;P2;SDS_P1;SDS_P2;PMS_P1;PMS_P2;Temp;Humidity;BMP_temperature;BMP_pressure;BME280_temperature;BME280_humidity;BME280_pressure;Samples;Min_cycle;Max_cycle;Signal;HPM_P1;HPM_P2
2023/02/19 00:01:30;;;;;;;0.65;0.20;;;13.90;71.20;;;;;;5052382;28;20025;-68
2023/02/19 00:04:06;;;;;;;0.40;0.30;;;13.90;71.20;;;;;;5034846;28;20096;-68
2023/02/19 00:06:32;;;;;;;0.52;0.40;;;13.90;71.20;;;;;;5051238;28;20064;-68
2023/02/19 00:08:58;;;;;;;0.40;0.30;;;13.90;71.20;;;;;;5052113;28;20025;-68
2023/02/19 00:11:25;;;;;;;0.13;0.13;;;13.90;71.20;;;;;;5054157;28;20039;-68
2023/02/19 00:13:52;;;;;;;0.50;0.30;;;13.90;71.20;;;;;;5056824;28;20100;-68
2023/02/19 00:16:19;;;;;;;0.30;0.30;;;13.90;71.20;;;;;;5055271;28;20024;-68
2023/02/19 00:18:45;;;;;;;0.52;0.20;;;13.90;71.30;;;;;;5056315;28;20051;-68
2023/02/19 00:21:11;;;;;;;0.82;0.40;;;13.90;71.20;;;;;;5055111;28;20025;-68
2023/02/19 00:23:36;;;;;;;0.20;0.17;;;13.90;71.20;;;;;;5054989;28;20025;-68
2023/02/19 00:26:10;;;;;;;0.40;0.38;;;13.90;71.20;;;;;;5056200;28;20033;-68
2023/02/19 00:28:36;;;;;;;0.35;0.20;;;13.90;71.20;;;;;;5038322;28;20063;-68
2023/02/19 00:31:14;;;;;;;0.57;0.30;;;13.90;71.30;;;;;;5055942;28;20523;-68
2023/02/19 00:33:40;;;;;;;0.32;0.22;;;13.90;71.20;;;;;;5056179;28;20448;-68
2023/02/19 00:36:06;;;;;;;0.68;0.43;;;13.90;71.20;;;;;;5049537;28;20033;-68
2023/02/19 00:38:34;;;;;;;0.43;0.30;;;13.90;71.30;;;;;;5035860;28;20024;-68
2023/02/19 00:41:00;;;;;;;0.65;0.30;;;13.90;71.20;;;;;;5034923;28;20590;-68
2023/02/19 00:43:25;;;;;;;1.10;0.43;;;13.90;71.20;;;;;;5041698;28;20033;-68
2023/02/19 00:45:51;;;;;;;0.57;0.32;;;13.90;71.30;;;;;;5054888;28;20029;-68
2023/02/19 00:48:17;;;;;;;0.20;0.20;;;13.90;71.20;;;;;;5055942;28;20068;-68
2023/02/19 00:50:43;;;;;;;1.08;0.40;;;13.90;71.20;;;;;;5055759;28;20120;-68
2023/02/19 00:53:08;;;;;;;0.77;0.38;;;13.90;71.30;;;;;;5037650;28;20480;-68
2023/02/19 00:55:34;;;;;;;1.02;0.30;;;13.90;71.30;;;;;;5055551;28;20471;-68
2023/02/19 00:57:59;;;;;;;0.60;0.25;;;13.90;71.30;;;;;;5055662;28;20025;-68
2023/02/19 01:00:25;;;;;;;0.70;0.30;;;13.90;71.30;;;;;;5055570;28;20509;-68
2023/02/19 01:02:51;;;;;;;0.43;0.30;;;13.80;71.20;;;;;;5055872;28;20100;-68
2023/02/19 01:05:16;;;;;;;0.30;0.30;;;13.90;71.30;;;;;;5054243;28;20052;-68
2023/02/19 01:07:42;;;;;;;0.63;0.30;;;13.90;71.30;;;;;;5055296;28;20028;-68
2023/02/19 01:10:08;;;;;;;0.45;0.30;;;13.80;71.30;;;;;;5055362;28;20453;-68
2023/02/19 01:12:33;;;;;;;0.50;0.30;;;13.90;71.30;;;;;;5055549;28;20096;-68
2023/02/19 01:14:59;;;;;;;0.77;0.43;;;13.90;71.30;;;;;;5055405;28;20426;-68
2023/02/19 01:17:25;;;;;;;0.80;0.35;;;13.90;71.30;;;;;;5055126;28;20509;-68
2023/02/19 01:19:50;;;;;;;1.10;0.40;;;13.80;71.20;;;;;;5055189;28;20028;-68
2023/02/19 01:22:16;;;;;;;0.70;0.30;;;13.80;71.30;;;;;;5054916;28;20060;-68
2023/02/19 01:24:42;;;;;;;0.82;0.38;;;13.80;71.30;;;;;;5055111;28;20037;-68
2023/02/19 01:27:07;;;;;;;0.95;0.30;;;13.80;71.30;;;;;;5054993;28;20029;-68
2023/02/19 01:29:33;;;;;;;0.57;0.28;;;13.80;71.30;;;;;;5055080;28;20060;-68
2023/02/19 01:31:58;;;;;;;0.52;0.30;;;13.80;71.30;;;;;;5054816;28;20024;-68
2023/02/19 01:34:25;;;;;;;0.20;0.20;;;13.80;71.30;;;;;;5055062;28;20021;-68
2023/02/19 01:36:51;;;;;;;0.77;0.30;;;13.80;71.30;;;;;;5042214;28;20469;-68
2023/02/19 01:39:17;;;;;;;1.25;0.40;;;13.80;71.30;;;;;;5034810;28;20037;-68
2023/02/19 01:41:42;;;;;;;0.32;0.32;;;13.80;71.30;;;;;;5034892;28;20036;-68
2023/02/19 01:44:11;;;;;;;0.50;0.50;;;13.80;71.30;;;;;;5046272;28;20032;-68
2023/02/19 01:46:37;;;;;;;0.95;0.20;;;13.80;71.30;;;;;;5054878;28;20025;-68
2023/02/19 01:49:32;;;;;;;0.50;0.30;;;13.80;71.30;;;;;;5036823;28;20032;-68
2023/02/19 01:52:18;;;;;;;0.40;0.30;;;13.80;71.30;;;;;;5054497;28;20032;-68
2023/02/19 01:54:44;;;;;;;0.57;0.30;;;13.80;71.30;;;;;;5054592;28;20017;-68
2023/02/19 01:57:12;;;;;;;1.15;0.30;;;13.80;71.30;;;;;;5053326;28;20025;-68
2023/02/19 01:59:38;;;;;;;0.73;0.50;;;13.80;71.30;;;;;;5037015;28;20043;-68
2023/02/19 02:02:03;;;;;;;1.05;0.35;;;13.80;71.30;;;;;;5054460;28;20100;-68
2023/02/19 02:04:30;;;;;;;0.55;0.32;;;13.80;71.20;;;;;;5052946;28;20029;-68
2023/02/19 02:06:56;;;;;;;0.32;0.20;;;13.80;71.30;;;;;;5053344;28;20079;-68
2023/02/19 02:12:09;;;;;;;0.73;0.40;;;13.80;71.40;;;;;;5053315;28;20135;-68
2023/02/19 02:14:36;;;;;;;0.43;0.22;;;13.80;71.30;;;;;;5053090;28;20108;-68
2023/02/19 02:17:24;;;;;;;1.73;0.50;;;13.80;71.30;;;;;;5053036;28;20028;-68
2023/02/19 02:20:14;;;;;;;1.17;0.40;;;13.80;71.30;;;;;;5053867;28;20036;-68
2023/02/19 02:23:06;;;;;;;0.63;0.28;;;13.80;71.30;;;;;;5054174;28;20029;-68
2023/02/19 02:25:35;;;;;;;0.65;0.30;;;13.80;71.40;;;;;;5051691;28;20037;-68
2023/02/19 02:28:24;;;;;;;0.40;0.22;;;13.80;71.30;;;;;;5051562;28;20491;-68
2023/02/19 02:30:57;;;;;;;1.65;0.43;;;13.80;71.30;;;;;;4972792;28;20062;-68
2023/02/19 02:33:35;;;;;;;1.55;0.50;;;13.80;71.30;;;;;;4956667;28;20461;-68
2023/02/19 02:36:04;;;;;;;0.85;0.40;;;13.80;71.30;;;;;;4972641;28;20039;-68
2023/02/19 02:38:31;;;;;;;1.38;0.40;;;13.80;71.40;;;;;;4956795;28;20031;-68
2023/02/19 02:40:57;;;;;;;0.85;0.40;;;13.80;71.30;;;;;;4956670;28;20034;-68
2023/02/19 02:43:23;;;;;;;1.42;0.50;;;13.80;71.30;;;;;;4940461;28;20073;-68
2023/02/19 02:45:48;;;;;;;1.40;0.30;;;13.80;71.30;;;;;;4972771;28;20042;-68
2023/02/19 02:48:17;;;;;;;0.57;0.32;;;13.80;71.30;;;;;;4972540;28;20039;-68
2023/02/19 02:50:49;;;;;;;0.82;0.40;;;13.80;71.30;;;;;;4972461;28;20595;-68
2023/02/19 02:56:17;;;;;;;0.20;0.20;;;13.80;71.30;;;;;;4972839;28;20453;-68
2023/02/19 02:58:43;;;;;;;0.32;0.22;;;13.80;71.30;;;;;;4956442;28;20031;-68
2023/02/19 03:04:20;;;;;;;0.82;0.40;;;13.80;71.30;;;;;;4978207;28;20488;-68
2023/02/19 03:06:46;;;;;;;0.63;0.30;;;13.80;71.30;;;;;;4993270;28;20053;-68
2023/02/19 03:09:21;;;;;;;1.35;0.73;;;13.80;71.30;;;;;;5051961;28;20075;-68
2023/02/19 03:20:17;;;;;;;1.30;0.50;;;13.80;71.40;;;;;;5038544;28;20070;-68
2023/02/19 03:22:42;;;;;;;1.23;0.60;;;13.70;71.30;;;;;;5035097;28;20037;-68
2023/02/19 03:28:16;;;;;;;0.85;0.28;;;13.70;71.30;;;;;;5051808;28;20044;-68
2023/02/19 03:30:45;;;;;;;0.90;0.45;;;13.70;71.30;;;;;;5051302;28;20051;-68
2023/02/19 03:33:22;;;;;;;0.98;0.40;;;13.70;71.30;;;;;;5035092;28;20017;-68
2023/02/19 03:35:56;;;;;;;1.05;0.60;;;13.70;71.30;;;;;;5047418;28;20017;-68
2023/02/19 03:38:36;;;;;;;1.85;0.50;;;13.70;71.40;;;;;;5031770;28;20048;-68
2023/02/19 03:41:21;;;;;;;2.28;0.60;;;13.70;71.30;;;;;;5031603;28;20033;-68
2023/02/19 03:43:52;;;;;;;1.80;0.50;;;13.70;71.30;;;;;;5042460;28;20108;-68
2023/02/19 03:46:24;;;;;;;1.20;0.40;;;13.70;71.30;;;;;;5050537;28;20075;-68
2023/02/19 03:48:51;;;;;;;2.20;0.50;;;13.70;71.30;;;;;;5035332;28;20124;-68
2023/02/19 03:51:23;;;;;;;0.88;0.40;;;13.70;71.30;;;;;;5051161;28;20857;-68
2023/02/19 03:54:01;;;;;;;1.65;0.47;;;13.70;71.30;;;;;;5051405;28;20021;-68
2023/02/19 03:56:33;;;;;;;1.15;0.70;;;13.70;71.30;;;;;;5052358;28;20029;-68
2023/02/19 03:59:10;;;;;;;0.52;0.40;;;13.70;71.30;;;;;;5035554;28;20024;-68
2023/02/19 04:01:53;;;;;;;1.17;0.60;;;13.70;71.30;;;;;;5034688;28;20483;-68
2023/02/19 04:04:35;;;;;;;0.75;0.47;;;13.70;71.30;;;;;;5051345;28;20099;-68
2023/02/19 04:07:00;;;;;;;0.93;0.30;;;13.70;71.30;;;;;;5036604;28;20021;-68
2023/02/19 04:09:36;;;;;;;1.52;0.60;;;13.70;71.40;;;;;;5052094;28;20377;-68
2023/02/19 04:12:02;;;;;;;0.98;0.40;;;13.70;71.30;;;;;;5052468;28;20517;-68
2023/02/19 04:14:57;;;;;;;0.75;0.40;;;13.70;71.30;;;;;;5052073;28;20027;-68
2023/02/19 04:17:26;;;;;;;1.80;0.60;;;13.70;71.30;;;;;;5050942;28;20045;-68
2023/02/19 04:19:51;;;;;;;0.75;0.60;;;13.70;71.30;;;;;;5051179;28;20384;-68
2023/02/19 04:22:17;;;;;;;0.43;0.30;;;13.70;71.30;;;;;;5051025;28;20033;-67
2023/02/19 04:24:49;;;;;;;1.20;0.38;;;13.70;71.30;;;;;;5051028;28;20033;-68
2023/02/19 04:27:15;;;;;;;1.08;0.50;;;13.70;71.20;;;;;;5034699;28;20506;-68
2023/02/19 04:29:40;;;;;;;0.80;0.47;;;13.70;71.20;;;;;;5050766;28;20053;-68
2023/02/19 04:32:06;;;;;;;0.95;0.43;;;13.70;71.30;;;;;;5051989;28;20029;-68
2023/02/19 04:34:32;;;;;;;0.95;0.40;;;13.70;71.30;;;;;;5050841;28;20013;-68
2023/02/19 04:36:57;;;;;;;1.65;0.45;;;13.70;71.30;;;;;;5038669;28;20476;-68
2023/02/19 04:39:23;;;;;;;1.25;0.40;;;13.70;71.30;;;;;;5032115;28;20609;-68
2023/02/19 04:41:49;;;;;;;1.25;0.30;;;13.70;72.30;;;;;;5032102;28;20443;-68
2023/02/19 04:44:14;;;;;;;1.33;0.40;;;13.70;71.20;;;;;;5045681;28;20025;-68
2023/02/19 04:46:40;;;;;;;0.63;0.30;;;13.70;71.30;;;;;;5050887;28;20033;-68
2023/02/19 04:49:06;;;;;;;1.25;0.45;;;13.70;71.30;;;;;;5034310;28;20017;-68
2023/02/19 04:51:31;;;;;;;1.52;0.40;;;13.70;71.30;;;;;;5051862;28;20036;-68
2023/02/19 04:53:57;;;;;;;1.63;0.43;;;13.70;71.30;;;;;;5050697;28;20025;-68
2023/02/19 04:56:23;;;;;;;0.80;0.50;;;13.70;71.30;;;;;;5053205;28;20063;-68
2023/02/19 04:58:48;;;;;;;1.10;0.50;;;13.70;71.40;;;;;;5054100;28;20116;-68
2023/02/19 05:01:14;;;;;;;1.27;0.40;;;13.70;71.30;;;;;;5054409;28;20459;-68
2023/02/19 05:03:39;;;;;;;0.40;0.30;;;13.70;71.30;;;;;;5054515;28;20025;-68
2023/02/19 05:06:07;;;;;;;1.95;0.55;;;13.70;71.30;;;;;;5055603;28;20108;-68
2023/02/19 05:08:32;;;;;;;0.32;0.30;;;13.70;71.30;;;;;;5037781;28;20271;-68
2023/02/19 05:10:59;;;;;;;0.93;0.50;;;13.70;71.20;;;;;;5055354;28;20033;-68
2023/02/19 05:13:25;;;;;;;0.75;0.30;;;13.70;71.30;;;;;;5054007;28;20108;-68
2023/02/19 05:16:01;;;;;;;1.45;0.60;;;13.70;71.30;;;;;;5055212;28;20101;-68
2023/02/19 05:18:26;;;;;;;0.85;0.40;;;13.70;71.30;;;;;;5054049;28;20128;-68
2023/02/19 05:20:52;;;;;;;1.75;0.50;;;13.60;71.20;;;;;;5037559;28;20398;-68
2023/02/19 05:23:18;;;;;;;1.00;0.35;;;13.70;71.30;;;;;;5055132;28;20029;-68
2023/02/19 05:25:44;;;;;;;1.45;0.50;;;13.70;71.30;;;;;;5055187;28;20025;-68
2023/02/19 05:28:18;;;;;;;2.10;1.00;;;13.60;71.20;;;;;;5053585;28;20056;-68
2023/02/19 05:30:45;;;;;;;1.13;0.38;;;13.60;71.20;;;;;;5055358;28;20483;-68
2023/02/19 05:33:12;;;;;;;1.45;0.30;;;13.60;71.30;;;;;;5054922;28;20025;-68
2023/02/19 05:35:42;;;;;;;0.88;0.50;;;13.60;71.30;;;;;;5051074;28;20104;-68
2023/02/19 05:38:08;;;;;;;0.68;0.20;;;13.60;71.20;;;;;;5035118;28;20503;-68
2023/02/19 05:40:33;;;;;;;1.48;0.20;;;13.60;71.20;;;;;;5035277;28;20025;-68
2023/02/19 05:42:59;;;;;;;1.63;0.65;;;13.70;71.30;;;;;;5038257;28;20625;-68
2023/02/19 05:45:25;;;;;;;0.85;0.65;;;13.60;72.30;;;;;;5054881;28;20029;-68
2023/02/19 05:47:50;;;;;;;0.85;0.40;;;13.70;71.20;;;;;;5054622;28;20025;-68
2023/02/19 05:50:16;;;;;;;0.60;0.50;;;13.60;71.20;;;;;;5054786;28;20132;-68
2023/02/19 05:52:43;;;;;;;1.35;0.40;;;13.60;71.30;;;;;;5053395;28;20051;-68
2023/02/19 05:55:09;;;;;;;1.40;0.43;;;13.60;71.20;;;;;;5054728;28;20376;-68
2023/02/19 05:57:45;;;;;;;1.20;0.30;;;13.60;71.20;;;;;;5054341;28;20543;-68
2023/02/19 06:00:12;;;;;;;0.55;0.40;;;13.60;71.30;;;;;;5036929;28;20044;-68
2023/02/19 06:02:37;;;;;;;2.67;0.70;;;13.60;71.30;;;;;;5054306;28;20067;-68
2023/02/19 06:05:03;;;;;;;1.27;0.50;;;13.60;71.30;;;;;;5054643;28;20453;-68
2023/02/19 06:07:30;;;;;;;1.30;0.50;;;13.60;71.20;;;;;;5019319;28;20434;-68
2023/02/19 06:09:55;;;;;;;0.95;0.40;;;13.60;71.20;;;;;;5053017;28;20166;-68
2023/02/19 06:12:21;;;;;;;0.73;0.20;;;13.60;71.20;;;;;;5054087;28;20483;-68
2023/02/19 06:14:47;;;;;;;1.15;0.35;;;13.60;71.30;;;;;;5054114;28;20091;-68
2023/02/19 06:17:12;;;;;;;1.33;0.40;;;13.60;71.20;;;;;;5053068;28;20021;-68
2023/02/19 06:19:38;;;;;;;0.40;0.40;;;13.60;71.20;;;;;;5053090;28;20028;-68
2023/02/19 06:22:04;;;;;;;0.40;0.40;;;13.60;71.20;;;;;;5054083;28;20025;-68
2023/02/19 06:24:30;;;;;;;1.52;0.52;;;13.60;71.30;;;;;;5053722;28;20059;-68
2023/02/19 06:26:55;;;;;;;0.88;0.32;;;13.60;71.20;;;;;;5054022;28;20029;-68
2023/02/19 06:29:21;;;;;;;0.60;0.40;;;13.60;71.20;;;;;;5049721;28;20049;-68
2023/02/19 06:31:46;;;;;;;0.30;0.30;;;13.60;71.30;;;;;;5042451;28;20025;-68
2023/02/19 06:34:12;;;;;;;0.40;0.32;;;13.60;71.20;;;;;;5046793;28;20025;-68
2023/02/19 06:36:38;;;;;;;0.85;0.40;;;13.60;71.30;;;;;;5033695;28;20013;-68
2023/02/19 06:39:04;;;;;;;1.10;0.47;;;13.60;71.30;;;;;;5044396;28;20096;-68
2023/02/19 06:41:29;;;;;;;0.77;0.32;;;13.60;71.20;;;;;;5052424;28;20025;-68
2023/02/19 06:43:58;;;;;;;0.90;0.40;;;13.60;71.20;;;;;;5053750;28;20024;-68
2023/02/19 06:46:24;;;;;;;0.50;0.30;;;13.60;71.20;;;;;;5051329;28;20096;-68
2023/02/19 06:48:50;;;;;;;1.00;0.40;;;13.60;71.30;;;;;;5033797;28;20462;-68
2023/02/19 06:51:23;;;;;;;0.80;0.40;;;13.60;71.20;;;;;;5033222;28;20029;-68
2023/02/19 06:53:48;;;;;;;0.65;0.28;;;13.60;71.20;;;;;;5032212;28;20029;-68
2023/02/19 06:56:23;;;;;;;1.33;0.50;;;13.60;71.20;;;;;;5033688;28;20021;-68
2023/02/19 06:58:50;;;;;;;0.82;0.30;;;13.60;71.30;;;;;;5033474;28;20108;-67
2023/02/19 07:01:15;;;;;;;0.95;0.40;;;13.60;71.30;;;;;;5032320;28;20029;-68
2023/02/19 07:03:41;;;;;;;0.88;0.40;;;13.60;71.20;;;;;;5035884;28;20400;-68
2023/02/19 07:06:07;;;;;;;1.00;0.30;;;13.60;71.30;;;;;;5052004;28;20098;-68
2023/02/19 07:08:32;;;;;;;0.40;0.40;;;13.60;71.30;;;;;;5051718;28;20033;-68
2023/02/19 07:10:58;;;;;;;1.10;0.32;;;13.60;71.30;;;;;;5051879;28;20116;-68
2023/02/19 07:13:25;;;;;;;0.60;0.55;;;13.60;71.30;;;;;;5052017;28;20103;-68
2023/02/19 07:15:51;;;;;;;0.80;0.35;;;13.60;71.20;;;;;;5053121;28;20020;-68
2023/02/19 07:18:16;;;;;;;1.73;0.60;;;13.60;71.20;;;;;;5052900;28;20047;-68
2023/02/19 07:20:42;;;;;;;0.63;0.30;;;13.60;71.20;;;;;;5053093;28;20028;-68
2023/02/19 07:23:08;;;;;;;0.50;0.30;;;13.50;71.20;;;;;;5051732;28;20436;-68
2023/02/19 07:25:33;;;;;;;1.17;0.30;;;13.60;71.30;;;;;;5053064;28;20065;-68
2023/02/19 07:27:59;;;;;;;0.73;0.40;;;13.60;71.20;;;;;;5052629;28;20049;-68
2023/02/19 07:30:25;;;;;;;0.85;0.47;;;13.60;71.20;;;;;;5051068;28;20487;-68
2023/02/19 07:32:50;;;;;;;0.85;0.25;;;13.50;71.20;;;;;;5033121;28;20022;-68
2023/02/19 07:35:16;;;;;;;0.57;0.35;;;13.60;71.30;;;;;;5032904;28;20434;-68
2023/02/19 07:37:41;;;;;;;0.70;0.32;;;13.50;71.20;;;;;;5034075;28;20476;-68
2023/02/19 07:40:07;;;;;;;1.02;0.30;;;13.60;71.20;;;;;;5051508;28;20021;-68
2023/02/19 07:42:33;;;;;;;1.13;0.45;;;13.50;71.20;;;;;;5051468;28;20029;-68
2023/02/19 07:44:58;;;;;;;0.40;0.20;;;13.50;71.20;;;;;;5052699;28;20029;-68
2023/02/19 07:47:24;;;;;;;0.70;0.20;;;13.50;71.20;;;;;;5052476;28;20037;-68
2023/02/19 07:49:50;;;;;;;0.73;0.35;;;13.50;71.20;;;;;;5051335;28;20061;-68
2023/02/19 07:52:15;;;;;;;0.20;0.20;;;13.50;71.20;;;;;;5052412;28;20029;-68
2023/02/19 07:54:41;;;;;;;0.45;0.20;;;13.50;71.20;;;;;;5052314;28;20013;-68
2023/02/19 07:57:06;;;;;;;0.80;0.30;;;13.50;71.20;;;;;;5052491;28;20032;-68
2023/02/19 07:59:33;;;;;;;0.93;0.40;;;13.60;72.30;;;;;;5052422;28;20027;-68
2023/02/19 08:04:44;;;;;;;1.45;0.43;;;13.50;71.20;;;;;;5052365;28;20043;-68
2023/02/19 08:07:10;;;;;;;1.02;0.30;;;13.50;71.20;;;;;;5052394;28;20479;-68
2023/02/19 08:09:36;;;;;;;0.63;0.22;;;13.50;71.30;;;;;;5052433;28;20087;-68
2023/02/19 08:14:46;;;;;;;0.95;0.30;;;13.50;71.20;;;;;;5052335;28;20094;-68
2023/02/19 08:17:12;;;;;;;0.80;0.30;;;13.50;71.20;;;;;;5052163;28;20487;-68
2023/02/19 08:19:38;;;;;;;1.40;0.45;;;13.50;72.30;;;;;;5051125;28;20040;-68
2023/02/19 08:22:04;;;;;;;0.25;0.20;;;13.50;71.30;;;;;;5051984;28;20033;-68
2023/02/19 08:24:32;;;;;;;0.57;0.30;;;13.50;72.30;;;;;;5052244;28;20029;-68
2023/02/19 08:26:58;;;;;;;0.40;0.30;;;13.50;71.20;;;;;;5052193;28;20025;-68
2023/02/19 08:29:23;;;;;;;0.55;0.30;;;13.50;71.20;;;;;;5050801;28;20536;-68
2023/02/19 08:31:49;;;;;;;0.82;0.40;;;13.50;71.20;;;;;;5040728;28;20037;-68
2023/02/19 08:34:15;;;;;;;0.30;0.28;;;13.50;71.30;;;;;;5036321;28;20045;-68
2023/02/19 08:36:41;;;;;;;0.60;0.40;;;13.50;71.20;;;;;;5035745;28;20404;-67
2023/02/19 08:39:07;;;;;;;0.40;0.20;;;13.50;71.30;;;;;;5049373;28;20024;-68
2023/02/19 08:41:32;;;;;;;0.40;0.32;;;13.50;71.30;;;;;;5055967;28;20024;-68
2023/02/19 08:43:58;;;;;;;0.20;0.20;;;13.50;71.30;;;;;;5055951;28;20036;-67
2023/02/19 08:46:23;;;;;;;0.20;0.10;;;13.50;71.30;;;;;;5055847;28;20029;-68
2023/02/19 08:48:49;;;;;;;0.68;0.30;;;13.50;71.30;;;;;;5055916;28;20028;-68
2023/02/19 08:51:15;;;;;;;0.50;0.30;;;13.50;71.30;;;;;;5055528;28;20048;-68
2023/02/19 08:53:40;;;;;;;0.32;0.30;;;13.50;71.30;;;;;;5055943;28;20021;-68
2023/02/19 08:56:14;;;;;;;0.25;0.25;;;13.50;71.30;;;;;;5055753;28;20025;-68
2023/02/19 08:58:40;;;;;;;1.63;0.40;;;13.50;71.30;;;;;;5037924;28;20025;-67
2023/02/19 09:01:10;;;;;;;0.85;0.30;;;13.50;71.30;;;;;;5037864;28;20082;-68
2023/02/19 09:03:36;;;;;;;0.55;0.40;;;13.50;71.30;;;;;;5054571;28;20029;-68
2023/02/19 09:06:01;;;;;;;0.52;0.32;;;13.50;71.30;;;;;;5054208;28;20032;-68
2023/02/19 09:08:27;;;;;;;1.65;0.43;;;13.50;71.40;;;;;;5055442;28;20506;-68
2023/02/19 09:10:57;;;;;;;0.32;0.28;;;13.50;71.30;;;;;;5054337;28;20029;-68
2023/02/19 09:13:23;;;;;;;0.45;0.28;;;13.50;71.30;;;;;;5054102;28;20044;-68
2023/02/19 09:15:48;;;;;;;0.60;0.30;;;13.50;71.30;;;;;;5055186;28;20056;-68
2023/02/19 09:18:14;;;;;;;0.20;0.20;;;13.50;71.40;;;;;;5055298;28;20099;-67
2023/02/19 09:20:40;;;;;;;0.63;0.40;;;13.50;71.40;;;;;;5055144;28;20410;-68
2023/02/19 09:23:05;;;;;;;0.80;0.47;;;13.50;71.30;;;;;;5054028;28;20017;-68
2023/02/19 09:25:31;;;;;;;0.70;0.32;;;13.50;71.30;;;;;;5055327;28;20033;-68
2023/02/19 09:27:56;;;;;;;0.25;0.20;;;13.50;71.30;;;;;;5054915;28;20053;-68
2023/02/19 09:30:22;;;;;;;0.77;0.20;;;13.50;71.30;;;;;;5053904;28;20025;-68
2023/02/19 09:32:48;;;;;;;0.60;0.40;;;13.50;71.40;;;;;;5035091;28;20053;-68
2023/02/19 09:35:14;;;;;;;0.68;0.30;;;13.50;71.30;;;;;;5033666;28;20450;-68
2023/02/19 09:37:39;;;;;;;0.80;0.40;;;13.50;71.30;;;;;;5036109;28;20550;-68
2023/02/19 09:40:05;;;;;;;0.73;0.20;;;13.50;71.30;;;;;;5054971;28;20017;-68
2023/02/19 09:42:31;;;;;;;0.52;0.40;;;13.50;71.30;;;;;;5053491;28;20032;-68
2023/02/19 09:44:57;;;;;;;0.40;0.30;;;13.50;71.30;;;;;;5053620;28;20033;-67
2023/02/19 09:47:25;;;;;;;0.52;0.28;;;13.50;71.40;;;;;;5036927;28;20083;-68
2023/02/19 09:49:56;;;;;;;0.30;0.30;;;13.50;71.30;;;;;;5053341;28;20028;-68
2023/02/19 09:52:50;;;;;;;0.35;0.22;;;13.50;71.30;;;;;;5053659;28;20101;-67
2023/02/19 09:55:19;;;;;;;0.43;0.10;;;13.50;71.40;;;;;;5054709;28;20020;-68
2023/02/19 09:57:44;;;;;;;0.10;0.10;;;13.40;71.40;;;;;;5054585;28;20530;-68
2023/02/19 10:00:10;;;;;;;0.40;0.20;;;13.40;71.30;;;;;;5036909;28;20092;-68
2023/02/19 10:02:36;;;;;;;0.22;0.20;;;13.50;71.40;;;;;;5054179;28;20423;-68
2023/02/19 10:05:02;;;;;;;0.63;0.35;;;13.50;71.40;;;;;;5053510;28;20112;-68
2023/02/19 10:07:38;;;;;;;0.22;0.20;;;13.50;71.30;;;;;;5036733;28;20064;-68
2023/02/19 10:10:13;;;;;;;0.32;0.30;;;13.40;71.30;;;;;;5036751;28;20025;-68
2023/02/19 10:12:51;;;;;;;1.10;0.20;;;13.50;71.30;;;;;;5054141;28;20499;-68
2023/02/19 10:15:33;;;;;;;0.70;0.30;;;13.40;71.30;;;;;;5036484;28;20013;-68
2023/02/19 10:17:59;;;;;;;0.10;0.10;;;13.40;71.30;;;;;;5052665;28;20025;-67
2023/02/19 10:20:26;;;;;;;0.17;0.15;;;13.40;71.30;;;;;;5053219;28;20510;-68
2023/02/19 10:23:03;;;;;;;0.20;0.20;;;13.40;71.30;;;;;;5053008;28;20025;-68
2023/02/19 10:25:29;;;;;;;0.30;0.30;;;13.40;71.40;;;;;;5037032;28;20013;-68
2023/02/19 10:27:57;;;;;;;0.30;0.28;;;13.40;71.30;;;;;;5053888;28;20123;-68
2023/02/19 10:30:24;;;;;;;0.35;0.20;;;13.40;71.30;;;;;;5051342;28;20021;-68
2023/02/19 10:33:09;;;;;;;0.25;0.20;;;13.40;71.30;;;;;;5032532;28;20029;-68
2023/02/19 10:35:36;;;;;;;0.30;0.30;;;13.40;71.40;;;;;;5032819;28;20397;-68
2023/02/19 10:38:02;;;;;;;1.20;0.30;;;13.40;71.40;;;;;;5036992;28;20025;-68
2023/02/19 10:40:28;;;;;;;0.28;0.20;;;13.40;71.30;;;;;;5036189;28;20095;-68
2023/02/19 10:43:07;;;;;;;0.70;0.50;;;13.40;71.40;;;;;;5036007;28;20487;-68
2023/02/19 10:45:46;;;;;;;0.20;0.20;;;13.40;71.30;;;;;;5037241;28;20104;-68
2023/02/19 10:48:30;;;;;;;0.20;0.20;;;13.40;71.30;;;;;;5021235;28;20407;-68
2023/02/19 10:51:03;;;;;;;0.20;0.20;;;13.40;71.40;;;;;;5037178;28;20017;-68
2023/02/19 10:53:41;;;;;;;0.32;0.30;;;13.40;71.30;;;;;;5053192;28;20021;-68
2023/02/19 10:56:12;;;;;;;0.20;0.20;;;13.40;71.40;;;;;;5053554;28;20032;-68
2023/02/19 10:58:41;;;;;;;0.13;0.13;;;13.40;71.30;;;;;;5052247;28;20028;-68
2023/02/19 11:01:12;;;;;;;0.10;0.10;;;13.40;71.30;;;;;;5051969;28;20028;-68
2023/02/19 11:03:37;;;;;;;0.43;0.30;;;13.40;71.40;;;;;;5053299;28;20028;-68
2023/02/19 11:06:05;;;;;;;0.52;0.30;;;13.40;71.40;;;;;;5035759;28;20408;-68
2023/02/19 11:08:42;;;;;;;0.55;0.38;;;13.40;71.40;;;;;;5035699;28;20025;-68
2023/02/19 11:11:08;;;;;;;0.20;0.20;;;13.40;71.40;;;;;;5051906;28;20064;-68
2023/02/19 11:13:36;;;;;;;0.50;0.38;;;13.40;71.40;;;;;;5035414;28;20110;-68
2023/02/19 11:16:02;;;;;;;0.40;0.22;;;13.40;71.40;;;;;;5052871;28;20017;-68
2023/02/19 11:18:31;;;;;;;0.40;0.25;;;13.40;71.40;;;;;;5035372;28;20096;-68
2023/02/19 11:21:00;;;;;;;0.40;0.30;;;13.40;71.30;;;;;;5035733;28;20399;-68
2023/02/19 11:23:36;;;;;;;0.20;0.20;;;13.40;71.40;;;;;;5051732;28;20083;-68
2023/02/19 11:26:19;;;;;;;0.17;0.17;;;13.40;71.40;;;;;;5051677;28;20478;-68
2023/02/19 11:28:45;;;;;;;0.22;0.22;;;13.40;71.50;;;;;;5051310;28;20068;-68
2023/02/19 11:31:19;;;;;;;0.63;0.22;;;13.40;71.40;;;;;;5026842;28;20488;-68
2023/02/19 11:34:01;;;;;;;0.68;0.30;;;13.40;71.50;;;;;;5031705;28;20036;-68
2023/02/19 11:36:31;;;;;;;;;;;13.40;71.40;;;;;;5033224;28;20041;-68
2023/02/19 11:39:21;;;;;;;0.20;0.20;;;13.40;71.40;;;;;;5043504;28;20011;-68
2023/02/19 11:42:05;;;;;;;0.43;0.25;;;13.40;71.40;;;;;;5051345;28;20017;-68
2023/02/19 11:44:49;;;;;;;0.20;0.20;;;13.40;72.40;;;;;;5052571;28;20029;-68
2023/02/19 11:47:40;;;;;;;0.40;0.20;;;13.40;71.40;;;;;;5051336;28;20025;-68
2023/02/19 11:50:21;;;;;;;0.68;0.20;;;13.40;71.40;;;;;;5052660;28;20025;-68
2023/02/19 11:52:53;;;;;;;0.60;0.20;;;13.40;71.40;;;;;;5051070;28;20460;-68
2023/02/19 11:55:41;;;;;;;1.15;0.38;;;13.40;71.40;;;;;;5051284;28;20055;-68
2023/02/19 11:58:18;;;;;;;0.22;0.22;;;13.40;71.40;;;;;;5035506;28;20021;-68
2023/02/19 12:00:50;;;;;;;0.80;0.40;;;13.40;71.40;;;;;;5051440;28;20033;-68
2023/02/19 12:03:21;;;;;;;0.28;0.10;;;13.40;71.40;;;;;;5052328;28;20017;-67
2023/02/19 12:05:59;;;;;;;0.30;0.25;;;13.40;71.40;;;;;;5051374;28;20100;-68
2023/02/19 12:08:24;;;;;;;0.65;0.32;;;13.40;71.50;;;;;;5052739;28;20391;-68
2023/02/19 12:11:09;;;;;;;0.30;0.30;;;13.40;71.40;;;;;;5052306;28;20029;-68
2023/02/19 12:13:49;;;;;;;0.22;0.20;;;13.40;71.50;;;;;;5051928;28;20025;-68
2023/02/19 12:16:15;;;;;;;0.20;0.20;;;13.40;71.50;;;;;;5052201;28;20025;-68
2023/02/19 12:18:40;;;;;;;0.35;0.20;;;13.40;71.50;;;;;;5052256;28;20549;-68
2023/02/19 12:21:26;;;;;;;0.32;0.30;;;13.40;71.50;;;;;;5052197;28;20029;-68
2023/02/19 12:24:10;;;;;;;0.77;0.20;;;13.40;71.50;;;;;;5051793;28;20483;-68
2023/02/19 12:27:00;;;;;;;0.75;0.30;;;13.40;71.50;;;;;;5052051;28;20033;-68
2023/02/19 12:29:32;;;;;;;0.25;0.20;;;13.40;71.50;;;;;;5050555;28;20468;-67
2023/02/19 12:32:16;;;;;;;0.73;0.20;;;13.40;71.50;;;;;;5036326;28;20116;-68
2023/02/19 12:34:54;;;;;;;0.28;0.28;;;13.40;71.50;;;;;;5032381;28;20033;-68
2023/02/19 12:37:38;;;;;;;0.32;0.20;;;13.40;71.50;;;;;;5031029;28;20021;-68
2023/02/19 12:40:35;;;;;;;0.28;0.20;;;13.40;71.40;;;;;;5032093;28;20034;-68
2023/02/19 12:43:17;;;;;;;0.20;0.20;;;13.40;71.50;;;;;;5015691;28;20025;-68
2023/02/19 12:45:58;;;;;;;0.22;0.20;;;13.40;71.40;;;;;;5014349;28;20404;-68
2023/02/19 12:48:47;;;;;;;0.20;0.20;;;13.40;71.50;;;;;;5031004;28;20021;-68
2023/02/19 12:51:42;;;;;;;0.22;0.20;;;13.40;71.50;;;;;;5031870;28;20029;-68
2023/02/19 12:54:23;;;;;;;0.10;0.10;;;13.40;71.60;;;;;;5031976;28;20022;-68
2023/02/19 12:56:55;;;;;;;0.30;0.28;;;13.40;71.50;;;;;;5030701;28;20021;-68
2023/02/19 12:59:23;;;;;;;0.40;0.30;;;13.40;71.50;;;;;;5030888;28;20041;-68
2023/02/19 13:01:55;;;;;;;0.10;0.10;;;13.40;71.50;;;;;;5030683;28;20053;-68
2023/02/19 13:04:40;;;;;;;0.20;0.20;;;13.40;71.50;;;;;;5015166;28;20029;-68
2023/02/19 13:07:06;;;;;;;0.20;0.20;;;13.40;71.50;;;;;;5030891;28;20080;-68
2023/02/19 13:09:50;;;;;;;0.28;0.28;;;13.40;71.50;;;;;;5032201;28;20053;-68
2023/02/19 13:12:45;;;;;;;0.10;0.10;;;13.40;72.50;;;;;;5031759;28;20025;-67
2023/02/19 13:15:38;;;;;;;0.47;0.28;;;13.40;71.50;;;;;;5031197;28;20030;-68
2023/02/19 13:18:06;;;;;;;0.20;0.20;;;13.30;71.50;;;;;;5019064;28;20026;-68
2023/02/19 13:20:34;;;;;;;0.20;0.20;;;13.40;71.60;;;;;;5018061;28;20408;-68
2023/02/19 13:25:51;;;;;;;1.38;0.38;;;13.30;71.50;;;;;;5034222;28;20036;-68
2023/02/19 13:28:22;;;;;;;0.73;0.30;;;13.40;71.50;;;;;;5034149;28;20054;-68
2023/02/19 13:31:21;;;;;;;0.20;0.20;;;13.40;71.50;;;;;;5037341;28;20514;-68